createdAt,value
2024-01-04T00:01:20.564Z,2.83
2024-01-04T00:03:25.981Z,3.50
2024-01-04T00:05:30.463Z,1.60
2024-01-04T00:07:32.438Z,1.43
2024-01-04T00:09:35.468Z,0.83
2024-01-04T00:11:38.485Z,1.40
2024-01-04T00:13:41.516Z,0.77
2024-01-04T00:15:44.565Z,0.93
2024-01-04T00:17:47.625Z,1.37
2024-01-04T00:19:50.915Z,3.77
2024-01-04T00:21:55.218Z,1.83
2024-01-04T00:23:59.138Z,1.57
2024-01-04T00:26:01.662Z,1.53
2024-01-04T00:28:04.950Z,2.73
2024-01-04T00:30:09.619Z,4.03
2024-01-04T00:32:12.691Z,7.20
2024-01-04T00:34:16.195Z,4.83
2024-01-04T00:36:18.905Z,3.97
2024-01-04T00:38:23.383Z,1.37
2024-01-04T00:40:26.411Z,5.70
2024-01-04T00:42:29.367Z,2.33
2024-01-04T00:44:32.354Z,4.50
2024-01-04T00:46:35.383Z,3.40
2024-01-04T00:48:37.990Z,2.80
2024-01-04T00:50:41.375Z,2.60
2024-01-04T00:52:43.323Z,3.87
2024-01-04T00:54:47.980Z,2.30
2024-01-04T00:56:50.885Z,2.97
2024-01-04T00:58:53.864Z,2.13
2024-01-04T01:00:58.690Z,7.47
2024-01-04T01:03:00.860Z,2.53
2024-01-04T01:05:03.898Z,7.23
2024-01-04T01:07:07.018Z,3.60
2024-01-04T01:09:09.113Z,4.13
2024-01-04T01:11:13.668Z,3.10
2024-01-04T01:13:21.377Z,4.50
2024-01-04T01:15:24.423Z,2.17
2024-01-04T01:17:28.701Z,3.20
2024-01-04T01:19:31.898Z,4.23
2024-01-04T01:21:35.083Z,4.30
2024-01-04T01:23:38.162Z,1.60
2024-01-04T01:25:41.146Z,9.50
2024-01-04T01:27:46.066Z,5.43
2024-01-04T01:29:49.190Z,2.47
2024-01-04T01:31:51.173Z,4.10
2024-01-04T01:33:54.288Z,5.23
2024-01-04T01:35:57.387Z,5.23
2024-01-04T01:38:00.437Z,4.63
2024-01-04T01:40:03.664Z,5.80
2024-01-04T01:42:06.393Z,3.73
2024-01-04T01:44:12.155Z,4.83
2024-01-04T01:46:15.140Z,4.03
2024-01-04T01:48:18.287Z,6.67
2024-01-04T01:50:23.508Z,4.87
2024-01-04T01:52:26.788Z,6.33
2024-01-04T01:54:29.785Z,5.20
2024-01-04T01:56:32.214Z,6.50
2024-01-04T01:58:35.429Z,8.17
2024-01-04T02:00:40.219Z,6.90
2024-01-04T02:02:46.249Z,4.50
2024-01-04T02:04:49.951Z,6.53
2024-01-04T02:06:52.142Z,8.10
2024-01-04T02:08:55.317Z,5.77
2024-01-04T02:10:57.346Z,7.30
2024-01-04T02:13:00.641Z,5.00
2024-01-04T02:15:02.710Z,7.10
2024-01-04T02:17:07.357Z,5.50
2024-01-04T02:19:10.887Z,3.53
2024-01-04T02:21:14.047Z,4.63
2024-01-04T02:23:18.377Z,7.50
2024-01-04T02:25:21.317Z,5.40
2024-01-04T02:27:24.334Z,5.50
2024-01-04T02:29:27.816Z,6.23
2024-01-04T02:31:30.793Z,4.17
2024-01-04T02:33:34.111Z,3.47
2024-01-04T02:35:37.172Z,3.33
2024-01-04T02:37:40.484Z,3.50
2024-01-04T02:39:45.131Z,5.10
2024-01-04T02:41:48.613Z,2.67
2024-01-04T02:43:51.990Z,9.40
2024-01-04T02:45:55.029Z,6.60
2024-01-04T02:47:58.212Z,5.50
2024-01-04T02:50:01.958Z,8.10
2024-01-04T02:52:05.249Z,5.53
2024-01-04T02:54:09.175Z,1.37
2024-01-04T02:56:13.664Z,5.50
2024-01-04T02:58:16.645Z,6.30
2024-01-04T03:00:20.683Z,5.53
2024-01-04T03:02:23.782Z,3.10
2024-01-04T03:04:26.757Z,2.23
2024-01-04T03:06:31.637Z,7.77
2024-01-04T03:08:34.897Z,4.10
2024-01-04T03:10:37.892Z,3.63
2024-01-04T03:12:42.428Z,3.90
2024-01-04T03:14:44.569Z,3.20
2024-01-04T03:16:47.575Z,3.13
2024-01-04T03:18:50.938Z,4.33
2024-01-04T03:20:54.101Z,2.97
2024-01-04T03:22:57.021Z,3.90
2024-01-04T03:24:59.938Z,5.23
2024-01-04T03:27:02.929Z,3.10
2024-01-04T03:29:07.215Z,5.00
2024-01-04T03:31:10.271Z,3.60
2024-01-04T03:33:13.564Z,2.07
2024-01-04T03:35:16.768Z,3.80
2024-01-04T03:37:19.802Z,6.73
2024-01-04T03:39:23.147Z,2.80
2024-01-04T03:41:26.278Z,2.00
2024-01-04T03:43:29.236Z,6.70
2024-01-04T03:45:34.202Z,6.03
2024-01-04T03:47:37.343Z,7.33
2024-01-04T03:49:40.590Z,8.27
2024-01-04T03:51:43.675Z,9.50
2024-01-04T03:53:45.628Z,9.03
2024-01-04T03:55:49.243Z,5.10
2024-01-04T03:57:52.385Z,8.83
2024-01-04T03:59:55.459Z,4.90
2024-01-04T04:01:59.804Z,9.73
2024-01-04T04:04:03.104Z,10.00
2024-01-04T04:06:07.255Z,7.60
2024-01-04T04:08:10.243Z,5.87
2024-01-04T04:10:13.310Z,7.20
2024-01-04T04:12:16.365Z,10.60
2024-01-04T04:14:19.562Z,5.30
2024-01-04T04:16:22.701Z,5.93
2024-01-04T04:18:27.467Z,6.63
2024-01-04T04:20:30.850Z,9.10
2024-01-04T04:22:35.480Z,5.77
2024-01-04T04:24:38.560Z,7.80
2024-01-04T04:26:41.776Z,7.80
2024-01-04T04:28:44.062Z,6.40
2024-01-04T04:30:47.034Z,4.13
2024-01-04T04:32:50.295Z,4.20
2024-01-04T04:34:54.701Z,6.20
2024-01-04T04:36:57.683Z,2.73
2024-01-04T04:39:03.641Z,4.90
2024-01-04T04:41:07.468Z,5.03
2024-01-04T04:43:10.549Z,5.77
2024-01-04T04:45:13.753Z,2.33
2024-01-04T04:47:16.833Z,4.97
2024-01-04T04:49:20.111Z,7.27
2024-01-04T04:51:24.880Z,3.57
2024-01-04T04:53:27.904Z,2.30
2024-01-04T04:55:30.730Z,6.40
2024-01-04T04:57:33.730Z,3.73
2024-01-04T04:59:36.945Z,4.50
2024-01-04T05:01:41.054Z,1.90
2024-01-04T05:03:45.551Z,2.83
2024-01-04T05:05:49.808Z,4.53
2024-01-04T05:07:54.157Z,1.40
2024-01-04T05:09:57.273Z,1.43
2024-01-04T05:12:00.162Z,1.90
2024-01-04T05:14:03.803Z,3.17
2024-01-04T05:16:08.409Z,4.57
2024-01-04T05:18:12.068Z,3.00
2024-01-04T05:20:16.692Z,3.63
2024-01-04T05:22:20.385Z,6.70
2024-01-04T05:24:25.166Z,2.57
2024-01-04T05:26:28.545Z,3.93
2024-01-04T05:28:31.828Z,7.10
2024-01-04T05:30:35.176Z,2.93
2024-01-04T05:32:39.190Z,2.90
2024-01-04T05:34:44.489Z,4.37
2024-01-04T05:36:47.635Z,1.30
2024-01-04T05:38:50.609Z,5.93
2024-01-04T05:40:53.961Z,4.70
2024-01-04T05:42:58.816Z,1.80
2024-01-04T05:45:01.845Z,5.13
2024-01-04T05:47:06.194Z,1.93
2024-01-04T05:49:09.216Z,1.23
2024-01-04T05:51:15.235Z,0.90
2024-01-04T05:53:18.817Z,2.10
2024-01-04T05:55:21.793Z,4.73
2024-01-04T05:57:28.644Z,2.33
2024-01-04T05:59:31.749Z,4.53
2024-01-04T06:01:35.138Z,1.47
2024-01-04T06:03:38.965Z,8.17
2024-01-04T06:05:42.255Z,5.00
2024-01-04T06:07:44.466Z,2.50
2024-01-04T06:09:47.420Z,3.03
2024-01-04T06:11:49.512Z,2.17
2024-01-04T06:13:54.121Z,4.00
2024-01-04T06:15:57.427Z,2.10
2024-01-04T06:18:00.820Z,5.00
2024-01-04T06:20:04.026Z,2.50
2024-01-04T06:22:06.958Z,6.40
2024-01-04T06:24:10.168Z,6.10
2024-01-04T06:26:19.382Z,1.93
2024-01-04T06:28:22.369Z,2.80
2024-01-04T06:30:26.943Z,6.43
2024-01-04T06:32:29.113Z,1.97
2024-01-04T06:34:32.246Z,3.70
2024-01-04T06:36:35.323Z,3.30
2024-01-04T06:38:38.372Z,4.80
2024-01-04T06:40:42.014Z,2.87
2024-01-04T06:42:47.184Z,3.03
2024-01-04T06:44:50.414Z,6.80
2024-01-04T06:46:54.731Z,2.20
2024-01-04T06:48:57.892Z,3.67
2024-01-04T06:51:01.449Z,6.97
2024-01-04T06:53:04.739Z,1.67
2024-01-04T06:55:08.113Z,3.03
2024-01-04T06:57:12.291Z,7.87
2024-01-04T06:59:15.327Z,5.07
2024-01-04T07:01:19.718Z,7.23
2024-01-04T07:03:24.054Z,1.80
2024-01-04T07:05:27.193Z,2.60
2024-01-04T07:07:29.157Z,2.40
2024-01-04T07:09:33.299Z,5.20
2024-01-04T07:11:36.309Z,5.00
2024-01-04T07:13:39.312Z,2.60
2024-01-04T07:15:42.335Z,2.70
2024-01-04T07:17:45.375Z,2.83
2024-01-04T07:19:49.848Z,2.90
2024-01-04T07:21:52.790Z,1.50
2024-01-04T07:23:56.808Z,3.17
2024-01-04T07:25:59.763Z,4.10
2024-01-04T07:28:04.755Z,2.10
2024-01-04T07:30:10.176Z,5.03
2024-01-04T07:32:12.833Z,3.43
2024-01-04T07:34:15.877Z,5.73
2024-01-04T07:36:20.262Z,1.70
2024-01-04T07:38:23.687Z,1.67
2024-01-04T07:40:27.070Z,1.40
2024-01-04T07:42:30.598Z,1.50
2024-01-04T07:44:33.577Z,2.00
2024-01-04T07:46:36.533Z,1.53
2024-01-04T07:48:39.915Z,4.17
2024-01-04T07:50:43.523Z,3.97
2024-01-04T07:52:47.958Z,2.33
2024-01-04T07:54:51.652Z,2.70
2024-01-04T07:56:55.131Z,4.10
2024-01-04T07:58:58.277Z,2.77
2024-01-04T08:01:02.930Z,3.10
2024-01-04T08:03:06.677Z,3.70
2024-01-04T08:05:11.026Z,3.20
2024-01-04T08:07:14.099Z,2.17
2024-01-04T08:09:19.573Z,4.13
2024-01-04T08:11:23.990Z,3.00
2024-01-04T08:13:27.011Z,4.30
2024-01-04T08:15:30.583Z,3.80
2024-01-04T08:17:32.621Z,4.43
2024-01-04T08:19:36.366Z,4.37
2024-01-04T08:21:39.537Z,3.40
2024-01-04T08:23:43.389Z,4.33
2024-01-04T08:25:47.126Z,3.60
2024-01-04T08:27:50.083Z,5.40
2024-01-04T08:29:52.382Z,5.40
2024-01-04T08:31:55.637Z,2.43
2024-01-04T08:33:59.145Z,2.10
2024-01-04T08:36:03.036Z,2.70
2024-01-04T08:38:09.282Z,1.60
2024-01-04T08:40:12.976Z,0.90
2024-01-04T08:42:21.033Z,2.40
2024-01-04T08:44:24.180Z,1.87
2024-01-04T08:46:27.581Z,2.47
2024-01-04T08:48:31.049Z,1.30
2024-01-04T08:50:34.259Z,1.77
2024-01-04T08:52:37.613Z,2.00
2024-01-04T08:54:39.622Z,1.63
2024-01-04T08:56:42.563Z,2.50
2024-01-04T08:58:47.056Z,1.40
2024-01-04T09:00:53.647Z,7.80
2024-01-04T09:02:57.540Z,4.37
2024-01-04T09:05:01.921Z,3.83
2024-01-04T09:07:05.429Z,2.80
2024-01-04T09:09:09.453Z,6.10
2024-01-04T09:11:12.612Z,3.30
2024-01-04T09:13:16.672Z,3.90
2024-01-04T09:15:21.274Z,5.87
2024-01-04T09:17:23.352Z,4.40
2024-01-04T09:19:28.195Z,3.10
2024-01-04T09:21:32.298Z,3.77
2024-01-04T09:23:35.247Z,4.53
2024-01-04T09:25:38.557Z,7.00
2024-01-04T09:27:41.515Z,3.57
2024-01-04T09:29:45.429Z,5.70
2024-01-04T09:31:51.082Z,4.40
2024-01-04T09:33:56.021Z,8.23
2024-01-04T09:36:01.520Z,4.70
2024-01-04T09:38:04.897Z,4.23
2024-01-04T09:40:08.046Z,12.20
2024-01-04T09:42:12.004Z,6.53
2024-01-04T09:44:15.385Z,5.33
2024-01-04T09:46:22.217Z,5.77
2024-01-04T09:48:34.786Z,4.23
2024-01-04T09:50:38.734Z,4.90
2024-01-04T09:52:45.471Z,4.47
2024-01-04T09:54:48.868Z,3.20
2024-01-04T09:56:55.156Z,4.77
2024-01-04T09:58:57.224Z,3.23
2024-01-04T10:01:01.933Z,5.07
2024-01-04T10:03:05.729Z,2.70
2024-01-04T10:05:11.292Z,1.87
2024-01-04T10:07:19.013Z,2.20
2024-01-04T10:09:26.757Z,3.97
2024-01-04T10:11:34.187Z,2.40
2024-01-04T10:13:37.956Z,4.23
2024-01-04T10:15:44.729Z,2.53
2024-01-04T10:17:49.094Z,1.80
2024-01-04T10:19:52.406Z,2.13
2024-01-04T10:22:02.065Z,1.90
2024-01-04T10:24:05.524Z,6.53
2024-01-04T10:26:10.283Z,3.23
2024-01-04T10:28:21.333Z,1.67
2024-01-04T10:30:23.516Z,2.30
2024-01-04T10:32:26.715Z,2.03
2024-01-04T10:34:29.643Z,3.03
2024-01-04T10:36:34.143Z,5.90
2024-01-04T10:38:37.665Z,1.20
2024-01-04T10:40:41.033Z,3.23
2024-01-04T10:42:54.586Z,1.27
2024-01-04T10:44:58.671Z,2.00
2024-01-04T10:47:02.937Z,1.13
2024-01-04T10:49:06.866Z,1.20
2024-01-04T10:51:10.935Z,1.83
2024-01-04T10:53:14.823Z,0.70
2024-01-04T10:55:21.378Z,3.60
2024-01-04T10:57:25.349Z,0.70
2024-01-04T10:59:30.290Z,0.80
2024-01-04T11:01:33.295Z,1.17
2024-01-04T11:03:36.388Z,1.00
2024-01-04T11:05:41.051Z,1.30
2024-01-04T11:07:44.522Z,1.63
2024-01-04T11:09:47.553Z,4.57
2024-01-04T11:11:54.192Z,2.63
2024-01-04T11:13:57.299Z,3.03
2024-01-04T11:16:02.089Z,3.00
2024-01-04T11:18:23.042Z,3.20
2024-01-04T11:20:32.482Z,3.33
2024-01-04T11:22:58.752Z,4.50
2024-01-04T11:25:07.865Z,4.97
2024-01-04T11:27:15.506Z,9.37
2024-01-04T11:29:18.549Z,4.63
2024-01-04T11:31:24.849Z,5.47
2024-01-04T11:33:29.431Z,5.10
2024-01-04T11:35:35.902Z,5.80
2024-01-04T11:37:39.201Z,7.00
2024-01-04T11:40:01.500Z,5.00
2024-01-04T11:42:16.368Z,6.80
2024-01-04T11:44:19.693Z,10.70
2024-01-04T11:46:24.020Z,6.07
2024-01-04T11:48:30.449Z,9.43
2024-01-04T11:50:33.616Z,4.03
2024-01-04T11:52:36.577Z,5.00
2024-01-04T11:54:43.027Z,4.60
2024-01-04T11:56:46.768Z,6.67
2024-01-04T11:58:50.391Z,6.70
2024-01-04T12:00:54.139Z,6.50
2024-01-04T12:02:57.752Z,3.67
2024-01-04T12:05:00.583Z,2.97
2024-01-04T12:07:05.570Z,3.43
2024-01-04T12:09:09.255Z,6.57
2024-01-04T12:11:13.687Z,12.13
2024-01-04T12:13:17.656Z,7.27
2024-01-04T12:15:23.741Z,5.97
2024-01-04T12:17:26.201Z,3.77
2024-01-04T12:19:30.164Z,6.23
2024-01-04T12:21:35.981Z,7.43
2024-01-04T12:23:39.279Z,85.37
2024-01-04T12:25:43.211Z,5.83
2024-01-04T12:27:47.165Z,6.17
2024-01-04T12:29:50.370Z,6.30
2024-01-04T12:31:55.582Z,9.80
2024-01-04T12:33:59.688Z,6.80
2024-01-04T12:36:03.319Z,5.50
2024-01-04T12:38:07.395Z,4.33
2024-01-04T12:40:14.071Z,5.73
2024-01-04T12:42:17.157Z,7.73
2024-01-04T12:44:22.876Z,4.37
2024-01-04T12:46:28.507Z,8.60
2024-01-04T12:48:33.155Z,5.77
2024-01-04T12:50:38.397Z,4.80
2024-01-04T12:52:42.118Z,6.00
2024-01-04T12:54:45.567Z,6.90
2024-01-04T12:56:54.046Z,2.87
2024-01-04T12:58:57.901Z,5.10
2024-01-04T13:01:00.829Z,2.23
2024-01-04T13:03:04.060Z,2.40
2024-01-04T13:05:10.350Z,4.00
2024-01-04T13:07:13.661Z,5.07
2024-01-04T13:09:19.120Z,1.97
2024-01-04T13:11:22.525Z,1.90
2024-01-04T13:13:28.740Z,3.47
2024-01-04T13:15:33.234Z,1.83
2024-01-04T13:17:37.172Z,2.37
2024-01-04T13:19:42.565Z,4.37
2024-01-04T13:21:50.908Z,10.73
2024-01-04T13:23:54.102Z,2.67
2024-01-04T13:25:57.317Z,3.07
2024-01-04T13:28:00.951Z,2.90
2024-01-04T13:30:04.368Z,1.80
2024-01-04T13:32:09.149Z,2.20
2024-01-04T13:34:13.312Z,2.60
2024-01-04T13:36:16.485Z,4.00
2024-01-04T13:38:20.860Z,5.17
2024-01-04T13:40:24.342Z,5.13
2024-01-04T13:42:27.925Z,2.20
2024-01-04T13:44:30.849Z,3.90
2024-01-04T13:46:34.135Z,6.00
2024-01-04T13:48:37.266Z,6.07
2024-01-04T13:50:40.794Z,3.37
2024-01-04T13:52:42.952Z,2.83
2024-01-04T13:54:47.433Z,2.27
2024-01-04T13:56:50.408Z,2.57
2024-01-04T13:58:53.497Z,3.93
2024-01-04T14:00:56.486Z,4.47
2024-01-04T14:02:59.564Z,4.27
2024-01-04T14:05:02.718Z,3.40
2024-01-04T14:07:05.833Z,4.70
2024-01-04T14:09:09.239Z,10.30
2024-01-04T14:11:13.801Z,4.97
2024-01-04T14:13:16.142Z,5.33
2024-01-04T14:15:19.424Z,4.10
2024-01-04T14:17:22.682Z,5.30
2024-01-04T14:19:25.750Z,3.57
2024-01-04T14:21:28.798Z,4.07
2024-01-04T14:23:32.193Z,2.77
2024-01-04T14:25:35.202Z,2.70
2024-01-04T14:27:40.279Z,3.90
2024-01-04T14:29:43.643Z,2.60
2024-01-04T14:31:47.663Z,1.87
2024-01-04T14:33:51.092Z,3.20
2024-01-04T14:35:57.847Z,3.57
2024-01-04T14:38:02.832Z,6.27
2024-01-04T14:40:06.849Z,5.50
2024-01-04T14:42:10.005Z,4.50
2024-01-04T14:44:14.668Z,4.70
2024-01-04T14:46:23.081Z,11.37
2024-01-04T14:48:26.175Z,6.30
2024-01-04T14:50:29.598Z,3.47
2024-01-04T14:52:32.602Z,5.70
2024-01-04T14:54:35.570Z,3.97
2024-01-04T14:56:40.657Z,5.33
2024-01-04T14:58:42.939Z,4.47
2024-01-04T15:00:47.612Z,6.47
2024-01-04T15:02:51.630Z,3.97
2024-01-04T15:04:57.721Z,6.83
2024-01-04T15:07:03.786Z,4.43
2024-01-04T15:09:08.108Z,4.07
2024-01-04T15:11:10.178Z,8.13
2024-01-04T15:13:14.366Z,5.93
2024-01-04T15:15:23.715Z,5.03
2024-01-04T15:17:34.408Z,6.30
2024-01-04T15:19:37.954Z,6.30
2024-01-04T15:21:41.044Z,5.97
2024-01-04T15:23:44.414Z,8.87
2024-01-04T15:25:47.454Z,12.23
2024-01-04T15:27:50.455Z,11.60
2024-01-04T15:29:53.632Z,16.70
2024-01-04T15:31:58.359Z,10.13
2024-01-04T15:34:03.055Z,14.10
2024-01-04T15:36:07.978Z,14.60
2024-01-04T15:38:11.927Z,13.37
2024-01-04T15:40:15.324Z,16.00
2024-01-04T15:42:18.411Z,17.97
2024-01-04T15:44:20.688Z,15.70
2024-01-04T15:46:24.041Z,16.30
2024-01-04T15:48:28.879Z,15.53
2024-01-04T15:50:34.126Z,16.80
2024-01-04T15:52:37.226Z,19.90
2024-01-04T15:54:40.304Z,14.90
2024-01-04T15:56:43.390Z,15.70
2024-01-04T15:58:47.809Z,15.30
2024-01-04T16:00:51.929Z,21.27
2024-01-04T16:02:55.881Z,12.30
2024-01-04T16:04:58.947Z,20.63
2024-01-04T16:07:05.784Z,23.50
2024-01-04T16:09:10.159Z,18.93
2024-01-04T16:11:13.356Z,17.03
2024-01-04T16:13:16.363Z,19.00
2024-01-04T16:15:18.924Z,13.20
2024-01-04T16:17:21.882Z,22.10
2024-01-04T16:19:25.024Z,25.27
2024-01-04T16:21:28.667Z,13.80
2024-01-04T16:23:33.054Z,23.83
2024-01-04T16:25:35.099Z,17.87
2024-01-04T16:27:39.453Z,16.73
2024-01-04T16:29:42.935Z,19.90
2024-01-04T16:31:46.149Z,20.13
2024-01-04T16:33:49.535Z,11.70
2024-01-04T16:35:52.699Z,20.83
2024-01-04T16:37:56.951Z,18.57
2024-01-04T16:40:01.552Z,11.57
2024-01-04T16:42:04.952Z,16.57
2024-01-04T16:44:06.956Z,14.10
2024-01-04T16:46:10.032Z,14.67
2024-01-04T16:48:13.304Z,15.77
2024-01-04T16:50:16.658Z,23.60
2024-01-04T16:52:20.103Z,17.73
2024-01-04T16:54:23.351Z,17.33
2024-01-04T16:56:27.931Z,23.33
2024-01-04T16:58:31.438Z,21.83
2024-01-04T17:00:33.967Z,16.17
2024-01-04T17:02:36.880Z,23.13
2024-01-04T17:04:40.864Z,18.70
2024-01-04T17:06:44.379Z,19.37
2024-01-04T17:08:47.676Z,22.30
2024-01-04T17:10:50.676Z,21.00
2024-01-04T17:12:55.156Z,16.37
2024-01-04T17:14:58.180Z,14.77
2024-01-04T17:17:01.194Z,13.67
2024-01-04T17:19:04.310Z,19.80
2024-01-04T17:21:07.630Z,13.60
2024-01-04T17:23:10.546Z,16.80
2024-01-04T17:25:13.198Z,15.70
2024-01-04T17:27:16.321Z,22.67
2024-01-04T17:29:20.788Z,19.53
2024-01-04T17:31:23.782Z,16.77
2024-01-04T17:33:26.996Z,18.13
2024-01-04T17:35:31.541Z,17.73
2024-01-04T17:37:34.889Z,22.00
2024-01-04T17:39:37.925Z,14.83
2024-01-04T17:41:41.929Z,19.07
2024-01-04T17:43:45.192Z,23.10
2024-01-04T17:45:49.017Z,19.10
2024-01-04T17:47:52.162Z,17.70
2024-01-04T17:49:54.391Z,21.00
2024-01-04T17:51:57.509Z,16.13
2024-01-04T17:54:03.413Z,22.23
2024-01-04T17:56:07.319Z,19.93
2024-01-04T17:58:10.369Z,16.57
2024-01-04T18:00:13.711Z,13.47
2024-01-04T18:02:18.476Z,18.97
2024-01-04T18:04:22.454Z,26.43
2024-01-04T18:06:25.945Z,15.00
2024-01-04T18:08:29.048Z,19.53
2024-01-04T18:10:32.172Z,22.50
2024-01-04T18:12:36.273Z,18.47
2024-01-04T18:14:39.492Z,19.03
2024-01-04T18:16:43.129Z,19.90
2024-01-04T18:18:47.858Z,23.00
2024-01-04T18:20:50.081Z,19.00
2024-01-04T18:22:55.358Z,24.73
2024-01-04T18:25:00.279Z,18.97
2024-01-04T18:27:03.670Z,24.83
2024-01-04T18:29:06.741Z,29.47
2024-01-04T18:31:10.715Z,22.40
2024-01-04T18:33:14.560Z,26.20
2024-01-04T18:35:22.082Z,19.73
2024-01-04T18:37:25.081Z,19.27
2024-01-04T18:39:29.739Z,19.60
2024-01-04T18:41:32.768Z,21.67
2024-01-04T18:43:37.201Z,23.10
2024-01-04T18:45:40.502Z,28.10
2024-01-04T18:47:43.162Z,15.43
2024-01-04T18:49:47.371Z,17.80
2024-01-04T18:51:56.572Z,18.10
2024-01-04T18:54:02.313Z,22.93
2024-01-04T18:56:07.541Z,13.80
2024-01-04T18:58:11.032Z,26.90
2024-01-04T19:00:14.579Z,19.17
2024-01-04T19:02:19.165Z,16.13
2024-01-04T19:04:22.379Z,13.90
2024-01-04T19:06:25.495Z,16.83
2024-01-04T19:08:30.105Z,21.03
2024-01-04T19:10:33.658Z,13.03
2024-01-04T19:12:37.824Z,19.63
2024-01-04T19:14:41.197Z,16.47
2024-01-04T19:16:47.841Z,24.70
2024-01-04T19:18:52.263Z,16.57
2024-01-04T19:20:56.722Z,28.53
2024-01-04T19:23:04.491Z,28.23
2024-01-04T19:25:14.478Z,22.60
2024-01-04T19:27:17.931Z,21.37
2024-01-04T19:29:20.975Z,16.43
2024-01-04T19:31:23.949Z,20.27
2024-01-04T19:33:27.051Z,20.07
2024-01-04T19:35:30.054Z,21.90
2024-01-04T19:37:32.984Z,13.90
2024-01-04T19:39:36.003Z,18.37
2024-01-04T19:41:40.789Z,20.37
2024-01-04T19:43:44.090Z,20.43
2024-01-04T19:45:53.910Z,20.40
2024-01-04T19:47:58.898Z,21.23
2024-01-04T19:50:03.264Z,19.20
2024-01-04T19:52:07.106Z,14.27
2024-01-04T19:54:13.665Z,25.23
2024-01-04T19:56:17.835Z,26.00
2024-01-04T19:58:22.442Z,18.07
2024-01-04T20:00:25.498Z,22.40
2024-01-04T20:02:29.688Z,20.10
2024-01-04T20:04:32.782Z,21.20
2024-01-04T20:06:35.900Z,20.47
2024-01-04T20:08:38.891Z,10.23
2024-01-04T20:10:41.808Z,18.90
2024-01-04T20:12:43.805Z,16.83
2024-01-04T20:14:48.112Z,14.43
2024-01-04T20:16:50.529Z,15.17
2024-01-04T20:18:54.880Z,24.17
2024-01-04T20:20:58.117Z,23.73
2024-01-04T20:23:00.153Z,24.90
2024-01-04T20:25:03.021Z,26.73
2024-01-04T20:27:05.545Z,17.30
2024-01-04T20:29:08.666Z,14.77
2024-01-04T20:31:13.250Z,10.70
2024-01-04T20:33:16.399Z,16.27
2024-01-04T20:35:19.672Z,14.40
2024-01-04T20:37:23.276Z,14.87
2024-01-04T20:39:26.414Z,15.13
2024-01-04T20:41:28.791Z,16.07
2024-01-04T20:43:31.775Z,14.70
2024-01-04T20:45:34.896Z,17.90
2024-01-04T20:47:39.396Z,13.70
2024-01-04T20:49:46.905Z,16.43
2024-01-04T20:51:50.255Z,14.20
2024-01-04T20:53:53.298Z,18.07
2024-01-04T20:55:57.477Z,12.87
2024-01-04T20:58:00.461Z,13.50
2024-01-04T21:00:04.034Z,11.43
2024-01-04T21:02:07.379Z,21.00
2024-01-04T21:04:12.048Z,19.60
2024-01-04T21:06:15.288Z,16.07
2024-01-04T21:08:20.371Z,15.60
2024-01-04T21:10:23.306Z,12.47
2024-01-04T21:12:27.649Z,15.60
2024-01-04T21:14:33.880Z,16.33
2024-01-04T21:16:36.998Z,11.83
2024-01-04T21:18:41.224Z,12.90
2024-01-04T21:20:46.487Z,16.50
2024-01-04T21:22:49.601Z,13.50
2024-01-04T21:24:52.603Z,10.90
2024-01-04T21:26:56.988Z,12.50
2024-01-04T21:29:00.867Z,14.50
2024-01-04T21:31:04.182Z,10.60
2024-01-04T21:33:07.792Z,15.97
2024-01-04T21:35:13.291Z,11.10
2024-01-04T21:37:18.529Z,12.87
2024-01-04T21:39:22.260Z,15.73
2024-01-04T21:41:25.361Z,11.60
2024-01-04T21:43:29.844Z,11.03
2024-01-04T21:45:32.892Z,10.70
2024-01-04T21:47:35.151Z,16.33
2024-01-04T21:49:38.470Z,18.90
2024-01-04T21:51:42.866Z,18.43
2024-01-04T21:53:49.364Z,11.60
2024-01-04T21:55:52.417Z,12.17
2024-01-04T21:57:55.530Z,11.40
2024-01-04T22:00:02.166Z,15.57
2024-01-04T22:02:07.405Z,8.70
2024-01-04T22:04:09.792Z,14.00
2024-01-04T22:06:13.044Z,13.97
2024-01-04T22:08:17.073Z,8.73
2024-01-04T22:10:28.016Z,12.10
2024-01-04T22:12:31.870Z,16.53
2024-01-04T22:14:34.885Z,14.80
2024-01-04T22:16:39.777Z,14.10
2024-01-04T22:18:45.733Z,13.63
2024-01-04T22:20:49.761Z,11.70
2024-01-04T22:22:52.727Z,8.80
2024-01-04T22:24:56.277Z,10.60
2024-01-04T22:27:01.650Z,14.60
2024-01-04T22:29:04.681Z,18.50
2024-01-04T22:31:07.926Z,15.40
2024-01-04T22:33:11.061Z,11.00
2024-01-04T22:35:15.052Z,18.10
2024-01-04T22:37:17.129Z,20.40
2024-01-04T22:39:20.131Z,16.23
2024-01-04T22:41:23.149Z,11.03
2024-01-04T22:43:27.497Z,15.20
2024-01-04T22:45:30.520Z,10.67
2024-01-04T22:47:33.531Z,9.77
2024-01-04T22:49:37.958Z,18.23
2024-01-04T22:51:40.191Z,15.57
2024-01-04T22:53:43.313Z,20.40
2024-01-04T22:55:45.364Z,15.80
2024-01-04T22:57:48.954Z,13.73
2024-01-04T22:59:55.886Z,15.90
2024-01-04T23:02:00.136Z,20.40
2024-01-04T23:04:03.310Z,13.60
2024-01-04T23:06:06.104Z,13.70
2024-01-04T23:08:09.076Z,13.37
2024-01-04T23:10:13.128Z,9.37
2024-01-04T23:12:16.367Z,8.20
2024-01-04T23:14:21.315Z,16.30
2024-01-04T23:16:25.710Z,13.97
2024-01-04T23:18:28.016Z,15.43
2024-01-04T23:20:31.126Z,15.57
2024-01-04T23:22:34.327Z,11.97
2024-01-04T23:24:40.979Z,10.30
2024-01-04T23:26:44.759Z,16.03
2024-01-04T23:28:47.964Z,11.13
2024-01-04T23:30:50.006Z,15.17
2024-01-04T23:32:54.486Z,12.83
2024-01-04T23:34:58.152Z,8.53
2024-01-04T23:37:01.308Z,9.67
2024-01-04T23:39:04.436Z,11.23
2024-01-04T23:41:07.557Z,10.97
2024-01-04T23:43:11.080Z,13.83
2024-01-04T23:45:13.092Z,9.10
2024-01-04T23:47:16.155Z,19.03
2024-01-04T23:49:20.655Z,10.00
2024-01-04T23:51:23.835Z,17.87
2024-01-04T23:53:26.815Z,13.53
2024-01-04T23:55:29.849Z,15.63
2024-01-04T23:57:32.281Z,17.10
2024-01-04T23:59:35.535Z,20.40
